createdAt,value
2018-03-15T00:02:27.599Z,93.70
2018-03-15T00:04:54.773Z,94.20
2018-03-15T00:07:21.193Z,93.80
2018-03-15T00:09:47.606Z,93.80
2018-03-15T00:12:14.007Z,93.90
2018-03-15T00:14:40.430Z,93.90
2018-03-15T00:17:06.836Z,93.90
2018-03-15T00:19:33.248Z,94.10
2018-03-15T00:21:59.643Z,94.20
2018-03-15T00:24:26.536Z,94.10
2018-03-15T00:26:54.062Z,94.10
2018-03-15T00:29:20.485Z,94.10
2018-03-15T00:31:46.935Z,93.90
2018-03-15T00:34:14.071Z,93.90
2018-03-15T00:36:40.501Z,94.00
2018-03-15T00:39:06.918Z,94.10
2018-03-15T00:41:34.817Z,94.60
2018-03-15T00:44:01.982Z,94.30
2018-03-15T00:46:28.372Z,94.30
2018-03-15T00:48:54.753Z,94.40
2018-03-15T00:51:21.171Z,94.50
2018-03-15T00:53:47.703Z,94.70
2018-03-15T00:56:14.101Z,94.60
2018-03-15T00:58:40.526Z,94.80
2018-03-15T01:01:07.154Z,94.90
2018-03-15T01:03:34.350Z,95.10
2018-03-15T01:06:00.781Z,95.10
2018-03-15T01:08:27.187Z,95.00
2018-03-15T01:10:53.583Z,94.90
2018-03-15T01:13:20.759Z,94.60
2018-03-15T01:15:47.173Z,94.60
2018-03-15T01:18:13.572Z,94.50
2018-03-15T01:20:40.734Z,94.50
2018-03-15T01:23:07.147Z,94.50
2018-03-15T01:25:33.534Z,94.50
2018-03-15T01:28:00.710Z,94.70
2018-03-15T01:30:27.115Z,94.80
2018-03-15T01:32:53.555Z,94.70
2018-03-15T01:35:19.987Z,94.70
2018-03-15T01:37:46.469Z,95.10
2018-03-15T01:40:13.662Z,94.80
2018-03-15T01:42:40.108Z,94.80
2018-03-15T01:45:06.554Z,94.70
2018-03-15T01:47:33.726Z,94.60
2018-03-15T01:50:00.874Z,94.90
2018-03-15T01:52:27.312Z,94.60
2018-03-15T01:54:53.813Z,94.50
2018-03-15T01:57:20.965Z,94.20
2018-03-15T01:59:47.383Z,94.10
2018-03-15T02:02:13.895Z,94.20
2018-03-15T02:04:41.046Z,94.00
2018-03-15T02:07:07.460Z,94.00
2018-03-15T02:09:34.021Z,94.10
2018-03-15T02:12:00.434Z,94.30
2018-03-15T02:14:27.716Z,94.10
2018-03-15T02:16:54.767Z,94.00
2018-03-15T02:19:22.056Z,93.80
2018-03-15T02:21:49.330Z,93.90
2018-03-15T02:24:16.475Z,94.00
2018-03-15T02:26:42.899Z,94.00
2018-03-15T02:29:09.310Z,93.90
2018-03-15T02:31:36.488Z,93.80
2018-03-15T02:34:02.959Z,93.80
2018-03-15T02:36:29.371Z,93.90
2018-03-15T02:38:56.509Z,94.20
2018-03-15T02:41:22.907Z,94.10
2018-03-15T02:43:50.111Z,94.60
2018-03-15T02:46:16.546Z,94.20
2018-03-15T02:48:43.698Z,94.40
2018-03-15T02:51:10.144Z,94.40
2018-03-15T02:53:36.545Z,94.50
2018-03-15T02:56:03.094Z,94.70
2018-03-15T02:58:30.271Z,95.00
2018-03-15T03:00:56.692Z,95.00
2018-03-15T03:03:23.105Z,95.00
2018-03-15T03:05:49.525Z,94.90
2018-03-15T03:08:15.968Z,94.80
2018-03-15T03:10:42.382Z,94.80
2018-03-15T03:13:08.807Z,94.90
2018-03-15T03:17:15.796Z,95.30
2018-03-15T03:19:42.220Z,95.50
2018-03-15T03:22:08.649Z,95.60
2018-03-15T03:24:35.063Z,95.60
2018-03-15T03:27:01.512Z,95.80
2018-03-15T03:29:28.679Z,95.90
2018-03-15T03:31:55.847Z,95.90
2018-03-15T03:34:23.130Z,96.00
2018-03-15T03:36:50.303Z,96.10
2018-03-15T03:39:17.582Z,96.10
2018-03-15T03:41:44.030Z,96.10
2018-03-15T03:44:11.203Z,96.20
2018-03-15T03:46:38.486Z,96.20
2018-03-15T03:49:05.648Z,96.30
2018-03-15T03:51:32.824Z,96.30
2018-03-15T03:53:59.263Z,96.30
2018-03-15T03:56:26.404Z,96.50
2018-03-15T03:58:52.821Z,96.50
2018-03-15T04:01:19.237Z,96.60
2018-03-15T04:03:45.663Z,96.70
2018-03-15T04:06:12.087Z,96.80
2018-03-15T04:08:38.502Z,97.20
2018-03-15T04:11:05.013Z,97.00
2018-03-15T04:13:31.416Z,97.00
2018-03-15T04:15:57.866Z,97.00
2018-03-15T04:18:24.300Z,97.40
2018-03-15T04:20:50.756Z,97.20
2018-03-15T04:23:17.200Z,97.20
2018-03-15T04:25:43.618Z,97.20
2018-03-15T04:28:10.745Z,97.20
2018-03-15T04:30:37.194Z,97.20
2018-03-15T04:33:03.662Z,97.30
2018-03-15T04:35:30.075Z,97.30
2018-03-15T04:37:56.471Z,97.30
2018-03-15T04:40:22.898Z,97.30
2018-03-15T04:42:49.328Z,97.60
2018-03-15T04:45:16.473Z,97.30
2018-03-15T04:47:42.956Z,97.30
2018-03-15T04:50:10.125Z,97.20
2018-03-15T04:52:37.406Z,97.20
2018-03-15T04:55:04.590Z,97.20
2018-03-15T04:57:31.521Z,97.10
2018-03-15T04:59:58.674Z,97.00
2018-03-15T05:02:25.281Z,97.00
2018-03-15T05:04:52.466Z,97.00
2018-03-15T05:07:18.926Z,97.00
2018-03-15T05:09:46.103Z,97.00
2018-03-15T05:12:12.596Z,96.90
2018-03-15T05:14:39.013Z,96.90
2018-03-15T05:17:05.415Z,96.90
2018-03-15T05:19:31.828Z,96.90
2018-03-15T05:21:58.358Z,96.90
2018-03-15T05:24:25.632Z,96.90
2018-03-15T05:26:52.818Z,96.90
2018-03-15T05:29:19.230Z,96.90
2018-03-15T05:31:45.647Z,96.90
2018-03-15T05:34:12.075Z,96.90
2018-03-15T05:37:23.704Z,96.80
2018-03-15T05:39:50.189Z,96.90
2018-03-15T05:42:17.341Z,96.80
2018-03-15T05:44:44.507Z,96.90
2018-03-15T05:47:10.944Z,96.90
2018-03-15T05:49:37.366Z,97.30
2018-03-15T05:52:03.818Z,96.80
2018-03-15T05:54:30.259Z,96.90
2018-03-15T05:56:56.687Z,96.90
2018-03-15T05:59:23.086Z,96.80
2018-03-15T06:01:49.478Z,96.80
2018-03-15T06:04:15.888Z,96.60
2018-03-15T06:06:42.372Z,96.50
2018-03-15T06:09:09.258Z,96.40
2018-03-15T06:11:35.815Z,96.30
2018-03-15T06:14:03.118Z,96.50
2018-03-15T06:16:30.296Z,96.30
2018-03-15T06:18:57.453Z,96.20
2018-03-15T06:21:25.371Z,96.20
2018-03-15T06:23:51.788Z,96.20
2018-03-15T06:26:18.204Z,96.20
2018-03-15T06:28:44.633Z,96.20
2018-03-15T06:31:11.791Z,95.90
2018-03-15T06:33:39.012Z,95.80
2018-03-15T06:36:05.456Z,95.80
2018-03-15T06:38:31.887Z,95.80
2018-03-15T06:40:59.043Z,95.60
2018-03-15T06:43:26.239Z,95.70
2018-03-15T06:45:53.416Z,95.10
2018-03-15T06:48:19.833Z,95.10
2018-03-15T06:50:46.287Z,94.70
2018-03-15T06:53:12.712Z,94.30
2018-03-15T06:55:39.230Z,94.30
2018-03-15T06:58:06.408Z,93.50
2018-03-15T07:00:32.961Z,93.50
2018-03-15T07:02:59.399Z,93.40
2018-03-15T07:05:25.879Z,93.50
2018-03-15T07:07:52.276Z,93.40
2018-03-15T07:10:18.793Z,93.40
2018-03-15T07:12:45.268Z,93.30
2018-03-15T07:15:11.704Z,93.40
2018-03-15T07:17:38.136Z,93.60
2018-03-15T07:20:05.358Z,93.40
2018-03-15T07:22:31.783Z,93.00
2018-03-15T07:24:58.951Z,91.70
2018-03-15T07:27:26.159Z,91.60
2018-03-15T07:29:52.565Z,91.60
2018-03-15T07:32:18.961Z,91.70
2018-03-15T07:34:45.496Z,92.10
2018-03-15T07:37:12.728Z,92.30
2018-03-15T07:39:40.149Z,92.30
2018-03-15T07:42:07.313Z,92.70
2018-03-15T07:44:34.471Z,92.80
2018-03-15T07:47:00.932Z,92.80
2018-03-15T07:49:28.104Z,92.50
2018-03-15T07:51:55.252Z,92.30
2018-03-15T07:54:23.284Z,92.20
2018-03-15T07:56:49.690Z,92.20
2018-03-15T07:59:16.070Z,92.30
2018-03-15T08:01:42.485Z,92.30
2018-03-15T08:04:08.887Z,92.00
2018-03-15T08:06:36.055Z,92.60
2018-03-15T08:09:02.755Z,92.50
2018-03-15T08:11:29.167Z,92.40
2018-03-15T08:13:56.469Z,91.40
2018-03-15T08:16:22.924Z,91.30
2018-03-15T08:18:50.758Z,90.70
2018-03-15T08:21:17.212Z,90.70
2018-03-15T08:23:43.652Z,91.30
2018-03-15T08:26:11.085Z,91.90
2018-03-15T08:28:38.259Z,89.20
2018-03-15T08:31:05.652Z,88.90
2018-03-15T08:33:32.117Z,88.80
2018-03-15T08:35:58.575Z,87.20
2018-03-15T08:38:25.045Z,84.10
2018-03-15T08:40:51.492Z,82.60
2018-03-15T08:43:17.912Z,79.40
2018-03-15T08:45:44.391Z,80.00
2018-03-15T08:48:10.886Z,82.30
2018-03-15T08:50:37.403Z,83.60
2018-03-15T08:53:04.631Z,86.40
2018-03-15T08:55:31.066Z,86.50
2018-03-15T08:57:57.506Z,85.80
2018-03-15T09:00:23.943Z,83.50
2018-03-15T09:02:51.140Z,84.90
2018-03-15T09:05:17.564Z,84.80
2018-03-15T09:07:44.739Z,85.60
2018-03-15T09:10:12.017Z,85.70
2018-03-15T09:12:39.168Z,86.10
2018-03-15T09:15:05.591Z,86.00
2018-03-15T09:17:32.032Z,87.50
2018-03-15T09:19:58.468Z,88.50
2018-03-15T09:22:24.940Z,88.90
2018-03-15T09:24:51.428Z,88.50
2018-03-15T09:27:17.913Z,87.20
2018-03-15T09:29:45.070Z,86.80
2018-03-15T09:32:12.247Z,87.50
2018-03-15T09:34:39.439Z,88.20
2018-03-15T09:37:05.953Z,88.20
2018-03-15T09:39:32.416Z,88.80
2018-03-15T09:41:59.627Z,88.70
2018-03-15T09:44:26.070Z,88.70
2018-03-15T09:46:52.519Z,88.30
2018-03-15T09:49:19.734Z,88.60
2018-03-15T09:51:46.787Z,88.60
2018-03-15T09:54:13.251Z,88.60
2018-03-15T09:56:39.680Z,89.60
2018-03-15T09:59:06.124Z,88.60
2018-03-15T10:01:33.249Z,88.70
2018-03-15T10:03:59.705Z,88.60
2018-03-15T10:06:26.158Z,88.20
2018-03-15T10:08:52.578Z,88.20
2018-03-15T10:11:19.034Z,87.20
2018-03-15T10:13:46.215Z,86.70
2018-03-15T10:16:12.682Z,86.70
2018-03-15T10:18:39.121Z,85.70
2018-03-15T10:21:05.574Z,85.30
2018-03-15T10:23:32.155Z,85.50
2018-03-15T10:25:58.618Z,84.40
2018-03-15T10:28:25.085Z,83.00
2018-03-15T10:30:51.999Z,83.10
2018-03-15T10:33:25.170Z,83.00
2018-03-15T10:35:51.631Z,82.80
2018-03-15T10:38:20.081Z,83.00
2018-03-15T10:40:46.515Z,83.00
2018-03-15T10:43:13.693Z,79.50
2018-03-15T10:45:40.877Z,78.20
2018-03-15T10:48:07.279Z,78.10
2018-03-15T10:50:33.748Z,79.70
2018-03-15T10:53:00.262Z,80.10
2018-03-15T10:55:26.723Z,79.40
2018-03-15T10:57:53.205Z,79.70
2018-03-15T11:00:25.625Z,80.40
2018-03-15T11:02:52.689Z,79.30
2018-03-15T11:05:25.282Z,80.40
2018-03-15T11:08:11.454Z,79.90
2018-03-15T11:10:37.924Z,79.50
2018-03-15T11:13:04.447Z,79.60
2018-03-15T11:15:30.994Z,79.70
2018-03-15T11:17:57.443Z,79.70
2018-03-15T11:20:23.841Z,79.40
2018-03-15T11:22:50.281Z,79.00
2018-03-15T11:25:16.741Z,77.30
2018-03-15T11:27:43.278Z,78.20
2018-03-15T11:30:10.554Z,79.30
2018-03-15T11:32:37.014Z,78.30
2018-03-15T11:35:03.566Z,77.90
2018-03-15T11:37:30.050Z,78.70
2018-03-15T11:39:56.478Z,79.60
2018-03-15T11:42:22.945Z,79.50
2018-03-15T11:44:49.390Z,78.30
2018-03-15T11:47:15.851Z,78.40
2018-03-15T11:49:42.922Z,78.90
2018-03-15T11:52:10.136Z,79.20
2018-03-15T11:54:36.582Z,79.20
2018-03-15T11:57:03.022Z,80.00
2018-03-15T11:59:30.217Z,78.90
2018-03-15T12:01:58.151Z,77.80
2018-03-15T12:04:24.724Z,77.80
2018-03-15T12:06:51.149Z,75.30
2018-03-15T12:09:18.333Z,75.50
2018-03-15T12:11:45.540Z,75.30
2018-03-15T12:14:12.146Z,75.40
2018-03-15T12:16:38.626Z,76.60
2018-03-15T12:19:05.772Z,75.10
2018-03-15T12:21:32.195Z,74.90
2018-03-15T12:23:58.619Z,74.50
2018-03-15T12:26:25.123Z,75.00
2018-03-15T12:28:51.637Z,75.70
2018-03-15T12:31:18.844Z,76.50
2018-03-15T12:33:45.369Z,76.40
2018-03-15T12:36:12.634Z,77.00
2018-03-15T12:38:39.772Z,77.70
2018-03-15T12:41:06.270Z,77.70
2018-03-15T12:43:33.402Z,77.80
2018-03-15T12:45:59.837Z,77.80
2018-03-15T12:48:26.285Z,77.60
2018-03-15T12:50:52.897Z,76.10
2018-03-15T12:53:19.316Z,75.80
2018-03-15T12:55:45.830Z,74.80
2018-03-15T12:58:12.246Z,75.20
2018-03-15T13:00:38.660Z,73.20
2018-03-15T13:03:05.071Z,73.70
2018-03-15T13:05:31.467Z,73.50
2018-03-15T13:07:57.920Z,72.90
2018-03-15T13:10:24.371Z,72.60
2018-03-15T13:12:50.804Z,71.60
2018-03-15T13:15:18.092Z,71.60
2018-03-15T13:17:45.264Z,72.10
2018-03-15T13:20:11.718Z,72.00
2018-03-15T13:22:38.897Z,72.30
2018-03-15T13:25:05.353Z,72.30
2018-03-15T13:27:31.813Z,73.30
2018-03-15T13:29:58.258Z,73.30
2018-03-15T13:32:24.718Z,73.20
2018-03-15T13:34:51.960Z,73.20
2018-03-15T13:37:18.349Z,73.20
2018-03-15T13:39:44.772Z,73.70
2018-03-15T13:42:11.260Z,73.50
2018-03-15T13:44:37.676Z,74.40
2018-03-15T13:47:04.318Z,74.80
2018-03-15T13:49:30.748Z,74.90
2018-03-15T13:51:57.215Z,74.50
2018-03-15T13:54:24.333Z,74.50
2018-03-15T13:56:50.915Z,74.40
2018-03-15T13:59:18.090Z,74.60
2018-03-15T14:01:44.531Z,74.60
2018-03-15T14:04:11.784Z,74.60
2018-03-15T14:06:38.196Z,74.60
2018-03-15T14:09:04.712Z,74.00
2018-03-15T14:11:31.124Z,74.20
2018-03-15T14:13:57.557Z,75.00
2018-03-15T14:16:24.001Z,74.10
2018-03-15T14:18:50.475Z,74.00
2018-03-15T14:21:16.898Z,73.60
2018-03-15T14:23:44.083Z,74.00
2018-03-15T14:26:11.280Z,74.10
2018-03-15T14:28:37.664Z,74.10
2018-03-15T14:31:04.093Z,73.40
2018-03-15T14:33:30.512Z,73.80
2018-03-15T14:35:57.698Z,74.80
2018-03-15T14:38:24.149Z,74.60
2018-03-15T14:40:51.936Z,74.50
2018-03-15T14:43:19.143Z,74.60
2018-03-15T14:45:45.665Z,74.60
2018-03-15T14:48:12.837Z,74.70
2018-03-15T14:50:39.798Z,74.60
2018-03-15T14:53:06.971Z,75.20
2018-03-15T14:55:34.088Z,75.30
2018-03-15T14:58:00.504Z,75.30
2018-03-15T15:00:27.675Z,74.50
2018-03-15T15:02:54.889Z,74.80
2018-03-15T15:05:21.409Z,74.70
2018-03-15T15:07:48.549Z,74.80
2018-03-15T15:10:14.963Z,74.70
2018-03-15T15:12:41.384Z,74.90
2018-03-15T15:15:08.550Z,75.10
2018-03-15T15:17:35.723Z,74.60
2018-03-15T15:20:02.970Z,74.20
2018-03-15T15:22:29.397Z,74.20
2018-03-15T15:24:55.841Z,74.20
2018-03-15T15:27:22.299Z,74.80
2018-03-15T15:29:50.244Z,74.10
2018-03-15T15:32:16.716Z,74.60
2018-03-15T15:34:43.948Z,74.60
2018-03-15T15:37:10.404Z,74.50
2018-03-15T15:39:36.858Z,74.80
2018-03-15T15:42:03.323Z,75.00
2018-03-15T15:44:29.741Z,75.00
2018-03-15T15:46:56.345Z,75.20
2018-03-15T15:49:22.812Z,75.20
2018-03-15T15:51:49.233Z,75.40
2018-03-15T15:54:15.700Z,74.80
2018-03-15T15:56:42.140Z,75.30
2018-03-15T15:59:08.662Z,75.60
2018-03-15T16:01:36.265Z,75.80
2018-03-15T16:04:02.896Z,75.80
2018-03-15T16:06:30.087Z,75.90
2018-03-15T16:08:56.635Z,75.90
2018-03-15T16:11:23.840Z,76.40
2018-03-15T16:13:50.370Z,76.40
2018-03-15T16:16:16.840Z,76.40
2018-03-15T16:18:43.277Z,76.70
2018-03-15T16:21:10.484Z,77.00
2018-03-15T16:23:36.875Z,76.90
2018-03-15T16:26:03.464Z,78.00
2018-03-15T16:28:30.845Z,77.80
2018-03-15T16:30:57.401Z,77.80
2018-03-15T16:33:24.674Z,78.80
2018-03-15T16:35:51.927Z,78.60
2018-03-15T16:38:18.422Z,78.60
2018-03-15T16:40:46.072Z,78.80
2018-03-15T16:43:13.407Z,79.70
2018-03-15T16:45:41.008Z,79.10
2018-03-15T16:48:07.723Z,79.30
2018-03-15T16:50:34.276Z,79.60
2018-03-15T16:53:00.811Z,80.00
2018-03-15T16:55:28.017Z,80.70
2018-03-15T16:57:54.502Z,80.50
2018-03-15T17:00:21.014Z,81.00
2018-03-15T17:02:48.184Z,81.20
2018-03-15T17:05:15.360Z,81.40
2018-03-15T17:07:42.580Z,81.70
2018-03-15T17:10:09.033Z,81.70
2018-03-15T17:12:37.338Z,82.60
2018-03-15T17:15:05.171Z,82.60
2018-03-15T17:17:32.472Z,83.20
2018-03-15T17:19:58.861Z,83.20
2018-03-15T17:22:25.330Z,83.20
2018-03-15T17:24:52.570Z,83.40
2018-03-15T17:27:19.088Z,83.40
2018-03-15T17:29:45.555Z,83.30
2018-03-15T17:32:12.102Z,83.40
2018-03-15T17:34:39.281Z,83.60
2018-03-15T17:37:05.769Z,83.60
2018-03-15T17:39:32.249Z,83.50
2018-03-15T17:41:58.746Z,83.50
2018-03-15T17:44:25.204Z,83.50
2018-03-15T17:46:52.357Z,83.90
2018-03-15T17:49:18.792Z,83.90
2018-03-15T17:51:45.262Z,83.90
2018-03-15T17:54:12.564Z,84.50
2018-03-15T17:56:39.755Z,83.80
2018-03-15T17:59:06.215Z,83.80
2018-03-15T18:01:32.645Z,84.40
2018-03-15T18:03:59.892Z,84.10
2018-03-15T18:06:26.432Z,84.00
2018-03-15T18:08:52.908Z,83.90
2018-03-15T18:11:19.338Z,83.90
2018-03-15T18:13:45.742Z,83.80
2018-03-15T18:16:13.125Z,83.90
2018-03-15T18:18:39.573Z,83.90
2018-03-15T18:21:06.760Z,83.90
2018-03-15T18:23:33.982Z,83.90
2018-03-15T18:26:00.653Z,83.90
2018-03-15T18:28:27.100Z,83.80
2018-03-15T18:30:53.804Z,83.70
2018-03-15T18:33:20.297Z,83.70
2018-03-15T18:35:46.763Z,83.60
2018-03-15T18:38:13.276Z,83.70
2018-03-15T18:40:40.475Z,83.70
2018-03-15T18:43:07.003Z,83.70
2018-03-15T18:45:34.244Z,83.90
2018-03-15T18:48:01.962Z,83.90
2018-03-15T18:50:28.400Z,83.90
2018-03-15T18:52:55.296Z,83.90
2018-03-15T18:55:21.749Z,83.80
2018-03-15T18:57:48.260Z,83.80
2018-03-15T19:00:14.691Z,83.90
2018-03-15T19:02:41.090Z,83.90
2018-03-15T19:05:08.384Z,84.00
2018-03-15T19:07:34.943Z,84.10
2018-03-15T19:10:02.292Z,84.30
2018-03-15T19:12:29.594Z,84.20
2018-03-15T19:14:56.056Z,84.30
2018-03-15T19:17:22.500Z,84.80
2018-03-15T19:19:49.677Z,84.90
2018-03-15T19:22:16.863Z,84.80
2018-03-15T19:24:43.337Z,84.80
2018-03-15T19:27:10.891Z,85.00
2018-03-15T19:29:37.319Z,84.90
2018-03-15T19:32:04.111Z,84.70
2018-03-15T19:34:30.574Z,84.70
2018-03-15T19:36:57.124Z,84.60
2018-03-15T19:39:23.682Z,84.70
2018-03-15T19:41:50.547Z,84.70
2018-03-15T19:44:17.683Z,84.60
2018-03-15T19:46:44.101Z,84.60
2018-03-15T19:49:10.639Z,84.40
2018-03-15T19:51:37.287Z,84.40
2018-03-15T19:54:04.476Z,84.80
2018-03-15T19:56:30.912Z,84.80
2018-03-15T19:58:57.370Z,84.70
2018-03-15T20:01:24.545Z,84.50
2018-03-15T20:03:51.727Z,84.40
2018-03-15T20:06:18.225Z,84.40
2018-03-15T20:08:44.701Z,84.30
2018-03-15T20:11:11.149Z,84.50
2018-03-15T20:13:37.576Z,84.50
2018-03-15T20:16:04.154Z,84.90
2018-03-15T20:18:30.603Z,85.10
2018-03-15T20:20:57.029Z,85.20
2018-03-15T20:23:29.510Z,85.30
2018-03-15T20:25:56.033Z,85.40
2018-03-15T20:28:28.629Z,85.70
2018-03-15T20:30:55.096Z,86.00
2018-03-15T20:33:27.734Z,85.90
2018-03-15T20:35:54.175Z,86.10
2018-03-15T20:38:20.724Z,86.10
2018-03-15T20:40:54.050Z,86.40
2018-03-15T20:43:21.191Z,86.40
2018-03-15T20:45:54.347Z,86.60
2018-03-15T20:48:26.811Z,86.50
2018-03-15T20:50:53.359Z,86.50
2018-03-15T20:53:22.762Z,86.60
2018-03-15T20:55:49.340Z,86.60
2018-03-15T20:58:15.822Z,86.70
2018-03-15T21:00:42.310Z,87.00
2018-03-15T21:03:08.794Z,87.20
2018-03-15T21:05:36.048Z,87.40
2018-03-15T21:08:06.531Z,87.30
2018-03-15T21:10:33.601Z,87.60
2018-03-15T21:13:00.156Z,87.80
2018-03-15T21:15:27.431Z,87.90
2018-03-15T21:17:56.503Z,88.00
2018-03-15T21:20:23.822Z,88.40
2018-03-15T21:22:51.200Z,88.30
2018-03-15T21:25:18.475Z,88.70
2018-03-15T21:27:47.388Z,89.10
2018-03-15T21:30:15.377Z,89.00
2018-03-15T21:32:42.857Z,88.80
2018-03-15T21:35:11.384Z,88.80
2018-03-15T21:37:38.629Z,89.00
2018-03-15T21:40:05.293Z,89.20
2018-03-15T21:42:33.298Z,89.10
2018-03-15T21:44:59.749Z,89.40
2018-03-15T21:47:26.296Z,89.20
2018-03-15T21:49:55.701Z,89.40
2018-03-15T21:52:22.894Z,89.60
2018-03-15T21:54:49.993Z,89.60
2018-03-15T21:57:16.520Z,89.70
2018-03-15T21:59:43.078Z,89.80
2018-03-15T22:02:10.556Z,90.00
2018-03-15T22:04:37.121Z,90.00
2018-03-15T22:07:03.602Z,90.00
2018-03-15T22:09:30.134Z,90.10
2018-03-15T22:11:56.689Z,90.10
2018-03-15T22:14:23.140Z,90.10
2018-03-15T22:16:50.328Z,90.10
2018-03-15T22:19:16.795Z,90.10
2018-03-15T22:21:43.231Z,90.30
2018-03-15T22:24:10.377Z,90.20
2018-03-15T22:26:36.776Z,90.20
2018-03-15T22:29:03.186Z,90.20
2018-03-15T22:31:29.614Z,90.30
2018-03-15T22:33:56.078Z,90.50
2018-03-15T22:36:22.521Z,90.50
2018-03-15T22:38:48.960Z,90.70
2018-03-15T22:41:15.491Z,90.70
2018-03-15T22:43:42.635Z,90.80
2018-03-15T22:46:09.354Z,90.80
2018-03-15T22:48:35.782Z,90.80
2018-03-15T22:51:03.058Z,90.90
2018-03-15T22:53:30.334Z,90.80
2018-03-15T22:55:57.503Z,90.90
2018-03-15T22:58:24.671Z,90.90
2018-03-15T23:00:55.839Z,90.90
2018-03-15T23:03:22.238Z,90.90
2018-03-15T23:05:48.727Z,90.90
2018-03-15T23:08:15.188Z,90.90
2018-03-15T23:10:42.413Z,91.00
2018-03-15T23:13:08.855Z,91.00
2018-03-15T23:15:35.260Z,91.00
2018-03-15T23:18:01.693Z,91.10
2018-03-15T23:20:28.632Z,91.00
2018-03-15T23:22:55.084Z,91.10
2018-03-15T23:25:21.527Z,91.00
2018-03-15T23:27:47.982Z,91.00
2018-03-15T23:30:15.154Z,91.20
2018-03-15T23:32:42.313Z,91.40
2018-03-15T23:35:09.467Z,91.40
2018-03-15T23:37:36.656Z,91.40
2018-03-15T23:40:03.819Z,91.60
2018-03-15T23:42:30.272Z,91.60
2018-03-15T23:44:56.699Z,91.80
2018-03-15T23:47:23.214Z,91.80
2018-03-15T23:49:49.698Z,92.10
2018-03-15T23:52:16.126Z,92.50
2018-03-15T23:54:43.129Z,92.20
2018-03-15T23:57:09.650Z,92.30
2018-03-15T23:59:36.816Z,92.40
